ANACAPA ISLAND CA US current weather conditions

sailwx.info

Wind from 292 at 14 knots gusting 26

Air temperature 12.8° C
Dewpoint 8.6° C

Last reported at 2015-Feb-28 12:23 UTC.
Time now 2015-Feb-28 13:59 UTC

Location: N 34°01' W 119°22'.
View on Google Maps.

See reports from other nearby stations

  
Tides and Currents Weather Stations Pressure Air Temp Water Temp Dewpoint Dewpoint Depression Visibility Wind Speed Wind Dir Waves Ship Positions
date/time (UTC)wind fromknots sea level pressurealtimeterstation pressurevisibilityair tempwater tempwave heightnotes
2015-Feb-28 12:23 292 14 gusting 26 12.8
2015-Feb-28 11:23 310 13 gusting 26 13.3
2015-Feb-28 10:23 293 13 gusting 27 13.3
2015-Feb-28 09:23 305 18 gusting 31 13.3
2015-Feb-28 08:23 305 19 gusting 33 13.3
2015-Feb-28 07:23 297 19 gusting 33 13.3
2015-Feb-28 05:23 291 17 gusting 28 13.9
2015-Feb-28 04:23 289 18 gusting 32 14.4
2015-Feb-28 03:23 293 19 gusting 33 14.4
2015-Feb-28 02:23 289 18 gusting 29 14.4
2015-Feb-28 01:23 299 16 gusting 29 15.0
2015-Feb-28 00:23 296 18 gusting 29 15.6
2015-Feb-27 23:23 277 13 gusting 26 16.1
2015-Feb-27 22:23 292 12 gusting 20 16.7
2015-Feb-27 21:23 304 13 gusting 24 15.6
2015-Feb-27 20:23 296 11 gusting 17 16.1
2015-Feb-27 19:23 302 7 gusting 13 16.1
2015-Feb-27 18:23 277 8 gusting 14 16.1
2015-Feb-27 17:23 287 6 gusting 13 15.0
2015-Feb-27 16:23 007 3 gusting 9 15.6
2015-Feb-27 15:23 258 1 gusting 8 15.0
2015-Feb-27 14:23 247 3 gusting 10 13.9
2015-Feb-27 13:23 251 4 gusting 9 13.9
2015-Feb-27 12:23 253 6 gusting 8 14.4
2015-Feb-27 11:23 258 4 gusting 14 14.4
2015-Feb-27 10:23 304 9 gusting 18 15.0
2015-Feb-27 09:23 276 0 gusting 4 13.9
2015-Feb-27 08:23 234 3 gusting 7 14.4
2015-Feb-27 07:23 245 5 gusting 10 15.0
2015-Feb-27 06:23 291 5 gusting 11 15.0
2015-Feb-27 05:23 294 5 gusting 13 15.6
2015-Feb-27 04:23 305 7 gusting 15 15.6
2015-Feb-27 03:23 281 8 gusting 14 15.6
2015-Feb-27 02:23 297 6 gusting 13 15.6
2015-Feb-27 01:23 010 0 gusting 4 16.1
2015-Feb-27 00:23 285 0 gusting 6 17.2
2015-Feb-26 23:23 253 3 gusting 7 17.2
2015-Feb-26 22:23 263 2 gusting 6 17.8
2015-Feb-26 21:23 268 2 gusting 6 18.3
2015-Feb-26 20:23 270 1 gusting 6 18.3
2015-Feb-26 19:23 352 1 gusting 4 17.2
2015-Feb-26 18:23 025 1 gusting 5 16.7
2015-Feb-26 17:23 056 2 gusting 5 15.6
2015-Feb-26 16:23 044 2 gusting 6 14.4
2015-Feb-26 15:23 045 0 gusting 4 13.3
2015-Feb-26 14:23 052 1 gusting 3 12.8
2015-Feb-26 13:23 346 1 gusting 2 12.8